sensor_id;sensor_type;location;lat;lon;timestamp;pressure;altitude;pressure_sealevel;temperature;humidity
40574;BME280;26283;49.020;8.644;2023-04-01T00:02:18;97852.69;;;14.27;55.90
40574;BME280;26283;49.020;8.644;2023-04-01T00:04:43;97856.47;;;14.26;55.94
40574;BME280;26283;49.020;8.644;2023-04-01T00:07:10;97855.66;;;14.26;55.98
40574;BME280;26283;49.020;8.644;2023-04-01T00:09:36;97848.62;;;14.25;56.00
40574;BME280;26283;49.020;8.644;2023-04-01T00:12:01;97849.72;;;14.24;55.94
40574;BME280;26283;49.020;8.644;2023-04-01T00:14:27;97843.47;;;14.23;55.94
40574;BME280;26283;49.020;8.644;2023-04-01T00:16:52;97855.94;;;14.24;55.95
40574;BME280;26283;49.020;8.644;2023-04-01T00:19:18;97854.31;;;14.23;55.94
40574;BME280;26283;49.020;8.644;2023-04-01T00:21:43;97850.81;;;14.23;56.01
40574;BME280;26283;49.020;8.644;2023-04-01T00:24:09;97858.38;;;14.21;56.00
40574;BME280;26283;49.020;8.644;2023-04-01T00:26:34;97844.56;;;14.22;55.97
40574;BME280;26283;49.020;8.644;2023-04-01T00:28:59;97846.47;;;14.22;56.00
40574;BME280;26283;49.020;8.644;2023-04-01T00:31:26;97847.56;;;14.21;56.04
40574;BME280;26283;49.020;8.644;2023-04-01T00:33:52;97844.31;;;14.19;55.99
40574;BME280;26283;49.020;8.644;2023-04-01T00:36:19;97848.91;;;14.18;56.03
40574;BME280;26283;49.020;8.644;2023-04-01T00:38:46;97853.25;;;14.19;56.09
40574;BME280;26283;49.020;8.644;2023-04-01T00:41:13;97847.81;;;14.19;56.10
40574;BME280;26283;49.020;8.644;2023-04-01T00:43:41;97854.34;;;14.18;56.14
40574;BME280;26283;49.020;8.644;2023-04-01T00:46:07;97855.41;;;14.17;56.12
40574;BME280;26283;49.020;8.644;2023-04-01T00:48:36;97868.97;;;14.17;56.13
40574;BME280;26283;49.020;8.644;2023-04-01T00:51:10;97866.25;;;14.17;56.24
40574;BME280;26283;49.020;8.644;2023-04-01T00:53:43;97843.78;;;14.17;56.18
40574;BME280;26283;49.020;8.644;2023-04-01T00:56:13;97852.97;;;14.16;56.20
40574;BME280;26283;49.020;8.644;2023-04-01T00:58:44;97855.69;;;14.16;56.18
40574;BME280;26283;49.020;8.644;2023-04-01T01:01:11;97850.28;;;14.16;56.17
40574;BME280;26283;49.020;8.644;2023-04-01T01:03:37;97840.53;;;14.15;56.16
40574;BME280;26283;49.020;8.644;2023-04-01T01:11:29;97857.06;;;14.13;56.25
40574;BME280;26283;49.020;8.644;2023-04-01T01:14:51;97855.44;;;14.12;56.30
40574;BME280;26283;49.020;8.644;2023-04-01T01:16:59;97846.22;;;14.13;56.29
40574;BME280;26283;49.020;8.644;2023-04-01T01:19:50;97848.38;;;14.11;56.19
40574;BME280;26283;49.020;8.644;2023-04-01T01:22:44;97832.12;;;14.11;56.34
40574;BME280;26283;49.020;8.644;2023-04-01T01:28:01;97846.75;;;14.10;56.13
40574;BME280;26283;49.020;8.644;2023-04-01T01:30:43;97835.13;;;14.10;56.30
40574;BME280;26283;49.020;8.644;2023-04-01T01:33:22;97841.63;;;14.08;56.21
40574;BME280;26283;49.020;8.644;2023-04-01T01:35:54;97861.38;;;14.09;57.05
40574;BME280;26283;49.020;8.644;2023-04-01T01:38:27;97863.28;;;14.14;56.96
40574;BME280;26283;49.020;8.644;2023-04-01T01:40:55;97865.72;;;14.15;56.83
40574;BME280;26283;49.020;8.644;2023-04-01T01:43:26;97859.47;;;14.15;56.77
40574;BME280;26283;49.020;8.644;2023-04-01T01:45:58;97868.16;;;14.17;56.82
40574;BME280;26283;49.020;8.644;2023-04-01T01:48:26;97847.84;;;14.14;56.82
40574;BME280;26283;49.020;8.644;2023-04-01T01:50:55;97849.47;;;14.15;56.86
40574;BME280;26283;49.020;8.644;2023-04-01T01:53:20;97860.28;;;14.15;56.91
40574;BME280;26283;49.020;8.644;2023-04-01T01:55:47;97848.66;;;14.15;56.93
40574;BME280;26283;49.020;8.644;2023-04-01T01:58:26;97842.41;;;14.14;56.95
40574;BME280;26283;49.020;8.644;2023-04-01T02:00:57;97854.34;;;14.13;56.96
40574;BME280;26283;49.020;8.644;2023-04-01T02:03:25;97847.28;;;14.12;56.98
40574;BME280;26283;49.020;8.644;2023-04-01T02:05:53;97848.38;;;14.11;57.02
40574;BME280;26283;49.020;8.644;2023-04-01T02:08:25;97837.56;;;14.11;57.03
40574;BME280;26283;49.020;8.644;2023-04-01T02:11:00;97836.72;;;14.11;57.08
40574;BME280;26283;49.020;8.644;2023-04-01T02:13:52;97840.25;;;14.11;57.08
40574;BME280;26283;49.020;8.644;2023-04-01T02:19:13;97839.72;;;14.09;57.12
40574;BME280;26283;49.020;8.644;2023-04-01T02:21:41;97834.31;;;14.09;57.12
40574;BME280;26283;49.020;8.644;2023-04-01T02:24:12;97836.19;;;14.08;57.18
40574;BME280;26283;49.020;8.644;2023-04-01T02:26:40;97843.50;;;14.08;57.21
40574;BME280;26283;49.020;8.644;2023-04-01T02:29:08;97829.16;;;14.07;57.21
40574;BME280;26283;49.020;8.644;2023-04-01T02:31:34;97832.16;;;14.06;57.22
40574;BME280;26283;49.020;8.644;2023-04-01T02:34:00;97838.09;;;14.08;57.22
40574;BME280;26283;49.020;8.644;2023-04-01T02:36:27;97846.53;;;14.06;57.26
40574;BME280;26283;49.020;8.644;2023-04-01T02:38:54;97846.53;;;14.06;57.26
40574;BME280;26283;49.020;8.644;2023-04-01T02:41:21;97846.53;;;14.06;57.28
40574;BME280;26283;49.020;8.644;2023-04-01T02:43:46;97840.28;;;14.06;57.27
40574;BME280;26283;49.020;8.644;2023-04-01T02:46:12;97841.09;;;14.06;57.29
40574;BME280;26283;49.020;8.644;2023-04-01T02:48:37;97836.50;;;14.07;57.29
40574;BME280;26283;49.020;8.644;2023-04-01T02:51:02;97834.88;;;14.06;57.31
40574;BME280;26283;49.020;8.644;2023-04-01T02:53:28;97836.78;;;14.05;57.30
40574;BME280;26283;49.020;8.644;2023-04-01T02:55:54;97828.94;;;14.04;57.33
40574;BME280;26283;49.020;8.644;2023-04-01T02:58:21;97822.41;;;14.05;57.33
40574;BME280;26283;49.020;8.644;2023-04-01T03:00:46;97825.12;;;14.05;57.35
40574;BME280;26283;49.020;8.644;2023-04-01T03:03:12;97838.69;;;14.05;57.35
40574;BME280;26283;49.020;8.644;2023-04-01T03:05:38;97831.63;;;14.04;57.37
40574;BME280;26283;49.020;8.644;2023-04-01T03:08:04;97822.69;;;14.03;57.37
40574;BME280;26283;49.020;8.644;2023-04-01T03:10:29;97841.94;;;14.02;57.39
40574;BME280;26283;49.020;8.644;2023-04-01T03:12:55;97840.03;;;14.02;57.40
40574;BME280;26283;49.020;8.644;2023-04-01T03:15:20;97831.91;;;14.02;57.39
40574;BME280;26283;49.020;8.644;2023-04-01T03:17:45;97839.22;;;14.02;57.40
40574;BME280;26283;49.020;8.644;2023-04-01T03:20:12;97839.22;;;14.02;57.41
40574;BME280;26283;49.020;8.644;2023-04-01T03:22:39;97833.00;;;14.01;57.43
40574;BME280;26283;49.020;8.644;2023-04-01T03:25:05;97826.75;;;14.01;57.44
40574;BME280;26283;49.020;8.644;2023-04-01T03:27:33;97834.06;;;14.00;57.44
40574;BME280;26283;49.020;8.644;2023-04-01T03:29:59;97829.47;;;14.01;57.45
40574;BME280;26283;49.020;8.644;2023-04-01T03:32:25;97834.88;;;14.01;57.45
40574;BME280;26283;49.020;8.644;2023-04-01T03:34:50;97830.56;;;14.00;57.47
40574;BME280;26283;49.020;8.644;2023-04-01T03:37:15;97821.63;;;13.99;57.47
40574;BME280;26283;49.020;8.644;2023-04-01T03:39:41;97835.97;;;14.00;57.47
40574;BME280;26283;49.020;8.644;2023-04-01T03:42:06;97835.97;;;14.00;57.47
40574;BME280;26283;49.020;8.644;2023-04-01T03:44:35;97833.53;;;13.98;57.48
40574;BME280;26283;49.020;8.644;2023-04-01T03:47:01;97838.94;;;13.98;57.49
40574;BME280;26283;49.020;8.644;2023-04-01T03:49:26;97834.34;;;13.99;57.50
40574;BME280;26283;49.020;8.644;2023-04-01T03:51:52;97837.06;;;13.99;57.50
40574;BME280;26283;49.020;8.644;2023-04-01T03:54:17;97835.44;;;13.98;57.50
40574;BME280;26283;49.020;8.644;2023-04-01T03:56:45;97840.03;;;13.97;57.52
40574;BME280;26283;49.020;8.644;2023-04-01T03:59:10;97831.91;;;13.97;57.53
40574;BME280;26283;49.020;8.644;2023-04-01T04:01:36;97832.19;;;13.96;57.53
40574;BME280;26283;49.020;8.644;2023-04-01T04:04:01;97833.28;;;13.95;57.53
40574;BME280;26283;49.020;8.644;2023-04-01T04:06:27;97829.47;;;13.96;57.55
40574;BME280;26283;49.020;8.644;2023-04-01T04:08:52;97831.38;;;13.95;57.55
40574;BME280;26283;49.020;8.644;2023-04-01T04:11:19;97837.59;;;13.96;57.56
40574;BME280;26283;49.020;8.644;2023-04-01T04:13:45;97827.03;;;13.94;57.58
40574;BME280;26283;49.020;8.644;2023-04-01T04:16:10;97830.56;;;13.95;57.58
40574;BME280;26283;49.020;8.644;2023-04-01T04:18:36;97820.81;;;13.94;57.58
40574;BME280;26283;49.020;8.644;2023-04-01T04:21:03;97837.06;;;13.94;57.59
40574;BME280;26283;49.020;8.644;2023-04-01T04:23:28;97830.84;;;13.93;57.60
40574;BME280;26283;49.020;8.644;2023-04-01T04:25:59;97820.00;;;13.93;57.60
40574;BME280;26283;49.020;8.644;2023-04-01T04:28:26;97821.91;;;13.93;57.62
40574;BME280;26283;49.020;8.644;2023-04-01T04:30:52;97821.09;;;13.92;57.63
40574;BME280;26283;49.020;8.644;2023-04-01T04:33:18;97816.75;;;13.91;57.65
40574;BME280;26283;49.020;8.644;2023-04-01T04:35:43;97814.06;;;13.91;57.64
40574;BME280;26283;49.020;8.644;2023-04-01T04:38:08;97817.56;;;13.92;57.65
40574;BME280;26283;49.020;8.644;2023-04-01T04:40:36;97815.94;;;13.91;57.65
40574;BME280;26283;49.020;8.644;2023-04-01T04:43:02;97822.16;;;13.91;57.66
40574;BME280;26283;49.020;8.644;2023-04-01T04:45:27;97816.22;;;13.89;57.67
40574;BME280;26283;49.020;8.644;2023-04-01T04:47:53;97825.16;;;13.90;57.68
40574;BME280;26283;49.020;8.644;2023-04-01T04:50:18;97818.94;;;13.89;57.69
40574;BME280;26283;49.020;8.644;2023-04-01T04:52:43;97823.53;;;13.89;57.69
40574;BME280;26283;49.020;8.644;2023-04-01T04:55:09;97816.50;;;13.88;57.69
40574;BME280;26283;49.020;8.644;2023-04-01T04:57:34;97821.09;;;13.87;57.71
40574;BME280;26283;49.020;8.644;2023-04-01T05:00:00;97816.50;;;13.88;57.71
40574;BME280;26283;49.020;8.644;2023-04-01T05:02:25;97815.69;;;13.87;57.71
40574;BME280;26283;49.020;8.644;2023-04-01T05:04:50;97811.34;;;13.86;57.73
40574;BME280;26283;49.020;8.644;2023-04-01T05:07:16;97806.75;;;13.87;57.73
40574;BME280;26283;49.020;8.644;2023-04-01T05:09:41;97801.34;;;13.87;57.74
40574;BME280;26283;49.020;8.644;2023-04-01T05:12:07;97801.62;;;13.85;57.75
40574;BME280;26283;49.020;8.644;2023-04-01T05:14:32;97798.94;;;13.85;57.76
40574;BME280;26283;49.020;8.644;2023-04-01T05:16:57;97797.00;;;13.86;57.77
40574;BME280;26283;49.020;8.644;2023-04-01T05:19:23;97795.41;;;13.85;57.78
40574;BME280;26283;49.020;8.644;2023-04-01T05:21:48;97797.00;;;13.86;57.78
40574;BME280;26283;49.020;8.644;2023-04-01T05:24:13;97816.25;;;13.84;57.79
40574;BME280;26283;49.020;8.644;2023-04-01T05:26:39;97793.78;;;13.84;57.81
40574;BME280;26283;49.020;8.644;2023-04-01T05:29:05;97803.53;;;13.85;57.82
40574;BME280;26283;49.020;8.644;2023-04-01T05:31:30;97792.16;;;13.83;57.81
40574;BME280;26283;49.020;8.644;2023-04-01T05:33:56;97789.44;;;13.83;57.83
40574;BME280;26283;49.020;8.644;2023-04-01T05:36:21;97806.78;;;13.82;57.84
40574;BME280;26283;49.020;8.644;2023-04-01T05:38:47;97784.03;;;13.83;57.85
40574;BME280;26283;49.020;8.644;2023-04-01T05:41:13;97797.56;;;13.83;57.84
40574;BME280;26283;49.020;8.644;2023-04-01T05:43:39;97789.44;;;13.83;57.84
40574;BME280;26283;49.020;8.644;2023-04-01T05:46:05;97784.31;;;13.81;57.86
40574;BME280;26283;49.020;8.644;2023-04-01T05:48:33;97788.09;;;13.80;57.86
40574;BME280;26283;49.020;8.644;2023-04-01T05:51:00;97792.44;;;13.81;57.86
40574;BME280;26283;49.020;8.644;2023-04-01T05:53:25;97807.88;;;13.81;57.86
40574;BME280;26283;49.020;8.644;2023-04-01T05:55:50;97807.88;;;13.81;57.88
40574;BME280;26283;49.020;8.644;2023-04-01T05:58:16;97807.06;;;13.80;57.88
40574;BME280;26283;49.020;8.644;2023-04-01T06:00:41;97807.31;;;13.79;57.87
40574;BME280;26283;49.020;8.644;2023-04-01T06:03:06;97805.44;;;13.79;57.87
40574;BME280;26283;49.020;8.644;2023-04-01T06:05:40;97812.75;;;13.79;57.88
40574;BME280;26283;49.020;8.644;2023-04-01T06:08:16;97808.13;;;13.79;57.91
40574;BME280;26283;49.020;8.644;2023-04-01T06:11:06;97801.09;;;13.78;57.91
40574;BME280;26283;49.020;8.644;2023-04-01T06:16:36;97807.59;;;13.77;57.92
40574;BME280;26283;49.020;8.644;2023-04-01T06:22:15;97811.38;;;13.76;57.98
40574;BME280;26283;49.020;8.644;2023-04-01T06:31:26;97810.84;;;13.74;57.97
40574;BME280;26283;49.020;8.644;2023-04-01T06:33:45;97815.44;;;13.73;58.04
40574;BME280;26283;49.020;8.644;2023-04-01T06:47:23;97808.69;;;13.71;58.11
40574;BME280;26283;49.020;8.644;2023-04-01T06:52:55;97828.44;;;13.71;58.11
40574;BME280;26283;49.020;8.644;2023-04-01T06:55:29;97814.09;;;13.71;58.13
40574;BME280;26283;49.020;8.644;2023-04-01T06:57:59;97833.84;;;13.71;58.08
40574;BME280;26283;49.020;8.644;2023-04-01T07:00:32;97820.31;;;13.71;58.10
40574;BME280;26283;49.020;8.644;2023-04-01T07:03:21;97832.25;;;13.70;58.12
40574;BME280;26283;49.020;8.644;2023-04-01T07:05:48;97825.19;;;13.69;58.11
40574;BME280;26283;49.020;8.644;2023-04-01T07:08:20;97827.63;;;13.71;58.08
40574;BME280;26283;49.020;8.644;2023-04-01T07:11:01;97844.97;;;13.70;58.12
40574;BME280;26283;49.020;8.644;2023-04-01T07:16:11;97826.00;;;13.70;58.11
40574;BME280;26283;49.020;8.644;2023-04-01T07:18:43;97828.72;;;13.70;58.13
40574;BME280;26283;49.020;8.644;2023-04-01T07:21:25;97827.91;;;13.69;58.12
40574;BME280;26283;49.020;8.644;2023-04-01T07:23:54;97824.38;;;13.69;58.13
40574;BME280;26283;49.020;8.644;2023-04-01T07:26:23;97820.59;;;13.70;58.11
40574;BME280;26283;49.020;8.644;2023-04-01T07:28:52;97827.09;;;13.69;58.12
40574;BME280;26283;49.020;8.644;2023-04-01T07:34:26;97839.81;;;13.68;58.13
40574;BME280;26283;49.020;8.644;2023-04-01T07:39:48;97839.81;;;13.68;58.10
40574;BME280;26283;49.020;8.644;2023-04-01T07:45:31;97847.12;;;13.68;58.16
40574;BME280;26283;49.020;8.644;2023-04-01T07:56:31;97862.00;;;13.65;58.18
40574;BME280;26283;49.020;8.644;2023-04-01T08:04:31;97854.97;;;13.64;58.22
40574;BME280;26283;49.020;8.644;2023-04-01T08:07:12;97860.38;;;13.64;58.23
40574;BME280;26283;49.020;8.644;2023-04-01T08:15:23;97853.09;;;13.65;58.25
40574;BME280;26283;49.020;8.644;2023-04-01T08:18:01;97852.28;;;13.64;58.26
40574;BME280;26283;49.020;8.644;2023-04-01T08:20:48;97853.38;;;13.63;58.22
40574;BME280;26283;49.020;8.644;2023-04-01T08:23:18;97862.59;;;13.62;58.25
40574;BME280;26283;49.020;8.644;2023-04-01T08:31:12;97843.63;;;13.62;58.29
40574;BME280;26283;49.020;8.644;2023-04-01T08:33:42;97844.72;;;13.61;58.30
40574;BME280;26283;49.020;8.644;2023-04-01T08:38:41;97830.09;;;13.62;58.28
40574;BME280;26283;49.020;8.644;2023-04-01T08:41:36;97840.38;;;13.60;58.30
40574;BME280;26283;49.020;8.644;2023-04-01T08:44:40;97850.94;;;13.62;58.32
40574;BME280;26283;49.020;8.644;2023-04-01T08:47:34;97854.72;;;13.61;58.30
40574;BME280;26283;49.020;8.644;2023-04-01T08:53:19;97868.53;;;13.59;58.28
40574;BME280;26283;49.020;8.644;2023-04-01T08:56:01;97847.69;;;13.60;58.34
40574;BME280;26283;49.020;8.644;2023-04-01T09:04:25;97851.50;;;13.59;58.35
40574;BME280;26283;49.020;8.644;2023-04-01T09:10:16;97844.44;;;13.58;58.36
40574;BME280;26283;49.020;8.644;2023-04-01T09:12:55;97857.97;;;13.58;58.33
40574;BME280;26283;49.020;8.644;2023-04-01T09:18:29;97858.25;;;13.56;58.36
40574;BME280;26283;49.020;8.644;2023-04-01T09:34:30;97862.59;;;13.57;58.40
40574;BME280;26283;49.020;8.644;2023-04-01T09:37:18;97873.41;;;13.57;58.38
40574;BME280;26283;49.020;8.644;2023-04-01T09:40:31;97852.03;;;13.56;58.37
40574;BME280;26283;49.020;8.644;2023-04-01T09:46:12;97868.25;;;13.56;58.39
40574;BME280;26283;49.020;8.644;2023-04-01T09:51:45;97869.63;;;13.53;58.40
40574;BME280;26283;49.020;8.644;2023-04-01T09:57:30;97872.88;;;13.55;58.38
40574;BME280;26283;49.020;8.644;2023-04-01T10:00:29;97871.25;;;13.54;58.45
40574;BME280;26283;49.020;8.644;2023-04-01T10:33:19;97898.84;;;13.56;58.40
40574;BME280;26283;49.020;8.644;2023-04-01T10:41:39;97901.56;;;13.56;58.39
40574;BME280;26283;49.020;8.644;2023-04-01T10:55:36;97903.19;;;13.57;58.35
40574;BME280;26283;49.020;8.644;2023-04-01T11:31:00;97916.19;;;13.60;58.29
40574;BME280;26283;49.020;8.644;2023-04-01T11:45:21;97940.53;;;13.60;58.26
40574;BME280;26283;49.020;8.644;2023-04-01T11:53:05;97933.22;;;13.61;58.25
40574;BME280;26283;49.020;8.644;2023-04-01T11:56:07;97931.34;;;13.61;58.24
40574;BME280;26283;49.020;8.644;2023-04-01T12:01:33;97942.97;;;13.62;58.23
40574;BME280;26283;49.020;8.644;2023-04-01T12:06:57;97946.50;;;13.62;58.20
40574;BME280;26283;49.020;8.644;2023-04-01T12:09:58;97962.75;;;13.62;58.20
40574;BME280;26283;49.020;8.644;2023-04-01T12:12:38;97962.75;;;13.62;58.21
40574;BME280;26283;49.020;8.644;2023-04-01T12:15:29;97965.44;;;13.62;58.18
40574;BME280;26283;49.020;8.644;2023-04-01T12:18:03;97963.25;;;13.64;58.18
40574;BME280;26283;49.020;8.644;2023-04-01T12:32:40;97975.19;;;13.63;58.18
40574;BME280;26283;49.020;8.644;2023-04-01T12:35:51;97970.59;;;13.64;58.16
40574;BME280;26283;49.020;8.644;2023-04-01T12:53:18;97979.78;;;13.63;58.15
40574;BME280;26283;49.020;8.644;2023-04-01T13:15:51;98007.38;;;13.65;58.13
40574;BME280;26283;49.020;8.644;2023-04-01T13:28:59;98008.19;;;13.65;58.08
40574;BME280;26283;49.020;8.644;2023-04-01T13:34:56;98022.53;;;13.66;58.10
40574;BME280;26283;49.020;8.644;2023-04-01T13:40:33;98013.59;;;13.65;58.07
40574;BME280;26283;49.020;8.644;2023-04-01T13:46:11;98021.47;;;13.67;58.07
40574;BME280;26283;49.020;8.644;2023-04-01T14:00:10;98026.06;;;13.66;58.05
40574;BME280;26283;49.020;8.644;2023-04-01T14:13:43;98033.09;;;13.67;58.05
40574;BME280;26283;49.020;8.644;2023-04-01T14:32:20;98032.56;;;13.65;58.04
40574;BME280;26283;49.020;8.644;2023-04-01T14:40:49;98031.47;;;13.66;58.03
40574;BME280;26283;49.020;8.644;2023-04-01T14:43:47;98030.38;;;13.67;58.01
40574;BME280;26283;49.020;8.644;2023-04-01T14:48:59;98028.75;;;13.66;58.01
40574;BME280;26283;49.020;8.644;2023-04-01T14:51:33;98030.91;;;13.64;58.00
40574;BME280;26283;49.020;8.644;2023-04-01T14:56:40;98036.06;;;13.66;58.01
40574;BME280;26283;49.020;8.644;2023-04-01T14:59:25;98036.88;;;13.66;58.03
40574;BME280;26283;49.020;8.644;2023-04-01T15:02:03;98038.78;;;13.66;58.01
40574;BME280;26283;49.020;8.644;2023-04-01T15:10:17;98035.25;;;13.65;58.02
40574;BME280;26283;49.020;8.644;2023-04-01T15:21:00;98033.34;;;13.66;58.05
40574;BME280;26283;49.020;8.644;2023-04-01T15:23:56;98026.31;;;13.65;58.07
40574;BME280;26283;49.020;8.644;2023-04-01T15:27:21;98038.78;;;13.66;58.05
40574;BME280;26283;49.020;8.644;2023-04-01T15:29:43;98034.44;;;13.65;58.06
40574;BME280;26283;49.020;8.644;2023-04-01T15:32:21;98039.03;;;13.64;58.04
40574;BME280;26283;49.020;8.644;2023-04-01T15:35:24;98044.47;;;13.64;58.06
40574;BME280;26283;49.020;8.644;2023-04-01T15:40:50;98049.87;;;13.64;58.06
40574;BME280;26283;49.020;8.644;2023-04-01T15:49:03;98045.28;;;13.65;58.06
40574;BME280;26283;49.020;8.644;2023-04-01T15:51:52;98049.09;;;13.64;58.04
40574;BME280;26283;49.020;8.644;2023-04-01T15:54:37;98050.69;;;13.65;58.06
40574;BME280;26283;49.020;8.644;2023-04-01T15:57:20;98053.38;;;13.65;58.06
40574;BME280;26283;49.020;8.644;2023-04-01T16:02:49;98059.63;;;13.65;58.07
40574;BME280;26283;49.020;8.644;2023-04-01T16:21:44;98076.16;;;13.64;58.06
40574;BME280;26283;49.020;8.644;2023-04-01T16:24:22;98076.94;;;13.64;58.06
40574;BME280;26283;49.020;8.644;2023-04-01T16:26:56;98074.22;;;13.64;58.04
40574;BME280;26283;49.020;8.644;2023-04-01T16:37:43;98072.34;;;13.65;58.07
40574;BME280;26283;49.020;8.644;2023-04-01T16:40:20;98076.94;;;13.64;58.04
40574;BME280;26283;49.020;8.644;2023-04-01T16:45:43;98070.75;;;13.64;58.08
40574;BME280;26283;49.020;8.644;2023-04-01T16:48:49;98079.94;;;13.63;58.04
40574;BME280;26283;49.020;8.644;2023-04-01T16:51:11;98079.66;;;13.64;58.04
40574;BME280;26283;49.020;8.644;2023-04-01T16:53:42;98086.16;;;13.63;58.04
40574;BME280;26283;49.020;8.644;2023-04-01T16:56:21;98089.69;;;13.64;58.03
40574;BME280;26283;49.020;8.644;2023-04-01T16:59:06;98094.28;;;13.63;58.04
40574;BME280;26283;49.020;8.644;2023-04-01T17:01:47;98095.09;;;13.64;58.06
40574;BME280;26283;49.020;8.644;2023-04-01T17:09:51;98125.66;;;13.64;58.03
40574;BME280;26283;49.020;8.644;2023-04-01T17:15:07;98134.91;;;13.63;58.02
40574;BME280;26283;49.020;8.644;2023-04-01T17:20:38;98144.62;;;13.64;58.02
40574;BME280;26283;49.020;8.644;2023-04-01T17:23:32;98143.00;;;13.63;58.06
40574;BME280;26283;49.020;8.644;2023-04-01T17:26:39;98155.44;;;13.64;58.05
40574;BME280;26283;49.020;8.644;2023-04-01T17:38:04;98160.34;;;13.62;58.08
40574;BME280;26283;49.020;8.644;2023-04-01T17:46:44;98169.53;;;13.61;58.11
40574;BME280;26283;49.020;8.644;2023-04-01T17:49:25;98166.81;;;13.61;58.07
40574;BME280;26283;49.020;8.644;2023-04-01T17:52:04;98180.37;;;13.61;58.10
40574;BME280;26283;49.020;8.644;2023-04-01T18:16:16;98186.84;;;13.60;58.12
40574;BME280;26283;49.020;8.644;2023-04-01T18:18:53;98191.19;;;13.61;58.07
40574;BME280;26283;49.020;8.644;2023-04-01T18:24:14;98194.16;;;13.60;58.08
40574;BME280;26283;49.020;8.644;2023-04-01T18:26:50;98188.75;;;13.60;58.09
40574;BME280;26283;49.020;8.644;2023-04-01T18:31:48;98197.69;;;13.60;58.08
40574;BME280;26283;49.020;8.644;2023-04-01T18:37:32;98203.09;;;13.60;58.09
40574;BME280;26283;49.020;8.644;2023-04-01T18:39:52;98204.97;;;13.60;58.10
40574;BME280;26283;49.020;8.644;2023-04-01T18:45:28;98207.94;;;13.58;58.12
40574;BME280;26283;49.020;8.644;2023-04-01T18:50:55;98216.06;;;13.58;58.11
40574;BME280;26283;49.020;8.644;2023-04-01T18:56:11;98218.78;;;13.58;58.13
40574;BME280;26283;49.020;8.644;2023-04-01T18:59:02;98226.09;;;13.58;58.15
40574;BME280;26283;49.020;8.644;2023-04-01T19:01:40;98229.88;;;13.57;58.15
40574;BME280;26283;49.020;8.644;2023-04-01T19:06:59;98235.53;;;13.55;58.17
40574;BME280;26283;49.020;8.644;2023-04-01T19:09:43;98235.53;;;13.55;58.14
40574;BME280;26283;49.020;8.644;2023-04-01T19:12:31;98236.62;;;13.54;58.18
40574;BME280;26283;49.020;8.644;2023-04-01T19:20:38;98255.56;;;13.54;58.17
40574;BME280;26283;49.020;8.644;2023-04-01T19:25:57;98259.34;;;13.53;58.22
40574;BME280;26283;49.020;8.644;2023-04-01T19:28:37;98263.94;;;13.53;58.18
40574;BME280;26283;49.020;8.644;2023-04-01T19:36:59;98280.19;;;13.53;58.25
40574;BME280;26283;49.020;8.644;2023-04-01T19:39:52;98281.25;;;13.52;58.18
40574;BME280;26283;49.020;8.644;2023-04-01T19:42:33;98277.72;;;13.51;58.24
40574;BME280;26283;49.020;8.644;2023-04-01T19:56:52;98285.28;;;13.49;58.30
40574;BME280;26283;49.020;8.644;2023-04-01T20:00:21;98282.59;;;13.49;58.28
40574;BME280;26283;49.020;8.644;2023-04-01T20:05:27;98294.50;;;13.48;58.33
40574;BME280;26283;49.020;8.644;2023-04-01T20:08:01;98284.47;;;13.49;58.32
40574;BME280;26283;49.020;8.644;2023-04-01T20:10:41;98286.63;;;13.47;58.30
40574;BME280;26283;49.020;8.644;2023-04-01T20:16:03;98293.94;;;13.46;58.32
40574;BME280;26283;49.020;8.644;2023-04-01T20:18:52;98302.06;;;13.46;58.33
40574;BME280;26283;49.020;8.644;2023-04-01T20:26:41;98314.50;;;13.47;58.32
40574;BME280;26283;49.020;8.644;2023-04-01T20:29:35;98313.94;;;13.45;58.34
40574;BME280;26283;49.020;8.644;2023-04-01T20:37:39;98327.47;;;13.45;58.34
40574;BME280;26283;49.020;8.644;2023-04-01T20:43:24;98325.84;;;13.44;58.38
40574;BME280;26283;49.020;8.644;2023-04-01T20:46:20;98325.03;;;13.44;58.41
40574;BME280;26283;49.020;8.644;2023-04-01T20:51:31;98328.81;;;13.43;58.39
40574;BME280;26283;49.020;8.644;2023-04-01T20:54:24;98334.22;;;13.43;58.41
40574;BME280;26283;49.020;8.644;2023-04-01T20:57:14;98333.44;;;13.42;58.46
40574;BME280;26283;49.020;8.644;2023-04-01T21:08:28;98352.63;;;13.41;58.50
40574;BME280;26283;49.020;8.644;2023-04-01T21:11:10;98352.63;;;13.41;58.43
40574;BME280;26283;49.020;8.644;2023-04-01T21:17:10;98357.25;;;13.40;58.50
40574;BME280;26283;49.020;8.644;2023-04-01T21:30:56;98371.03;;;13.38;58.50
40574;BME280;26283;49.020;8.644;2023-04-01T21:33:38;98364.78;;;13.38;58.52
40574;BME280;26283;49.020;8.644;2023-04-01T21:42:28;98379.41;;;13.37;58.57
40574;BME280;26283;49.020;8.644;2023-04-01T21:47:47;98383.19;;;13.36;58.54
40574;BME280;26283;49.020;8.644;2023-04-01T21:56:16;98387.78;;;13.35;58.57
40574;BME280;26283;49.020;8.644;2023-04-01T22:07:17;98393.44;;;13.34;58.61
40574;BME280;26283;49.020;8.644;2023-04-01T22:10:30;98397.22;;;13.33;58.67
40574;BME280;26283;49.020;8.644;2023-04-01T22:12:46;98399.91;;;13.33;58.64
40574;BME280;26283;49.020;8.644;2023-04-01T22:15:26;98399.91;;;13.33;58.64
40574;BME280;26283;49.020;8.644;2023-04-01T22:18:18;98392.63;;;13.33;58.66
40574;BME280;26283;49.020;8.644;2023-04-01T22:26:31;98405.34;;;13.33;58.67
40574;BME280;26283;49.020;8.644;2023-04-01T22:29:20;98394.75;;;13.31;58.66
40574;BME280;26283;49.020;8.644;2023-04-01T22:31:51;98411.81;;;13.32;58.69
40574;BME280;26283;49.020;8.644;2023-04-01T22:34:49;98413.44;;;13.33;58.65
40574;BME280;26283;49.020;8.644;2023-04-01T22:37:45;98401.25;;;13.30;58.73
40574;BME280;26283;49.020;8.644;2023-04-01T22:40:25;98405.59;;;13.31;58.68
40574;BME280;26283;49.020;8.644;2023-04-01T22:42:57;98404.78;;;13.31;58.67
40574;BME280;26283;49.020;8.644;2023-04-01T22:48:23;98412.88;;;13.31;58.73
40574;BME280;26283;49.020;8.644;2023-04-01T22:53:59;98412.06;;;13.30;58.71
40574;BME280;26283;49.020;8.644;2023-04-01T22:56:40;98406.66;;;13.30;58.73